Авиационная погода в Нижневартовске

Регион: 
Погода METAR: 
USNN 262030Z 24001MPS 9999 SCT028 M32/M35 Q1026 R21/32//65 NOSIG RMK QFE765
Время наблюдения
2021-02-26T20:30:00Z
Температура C
-32.0
Точка росы
-35.0
Направление ветра
240
Скорость ветра (узлы)
2
Метео видимость
6.21
Явления погоды
Условия полета
VFR
Аэропорт подробнее: